sensor_id;sensor_type;location;lat;lon;timestamp;pressure;altitude;pressure_sealevel;temperature;humidity
65659;BME280;60181;53.258;6.932;2023-08-07T00:03:11;101015.01;;;21.32;64.67
65659;BME280;60181;53.258;6.932;2023-08-07T00:07:21;101014.86;;;21.31;64.63
65659;BME280;60181;53.258;6.932;2023-08-07T00:11:31;101013.37;;;21.29;64.70
65659;BME280;60181;53.258;6.932;2023-08-07T00:15:41;101011.55;;;21.28;64.63
65659;BME280;60181;53.258;6.932;2023-08-07T00:19:51;101010.41;;;21.28;64.67
65659;BME280;60181;53.258;6.932;2023-08-07T00:24:01;101008.33;;;21.27;64.72
65659;BME280;60181;53.258;6.932;2023-08-07T00:28:11;101007.01;;;21.27;64.87
65659;BME280;60181;53.258;6.932;2023-08-07T00:32:21;101006.09;;;21.26;64.93
65659;BME280;60181;53.258;6.932;2023-08-07T00:36:31;101005.45;;;21.25;65.00
65659;BME280;60181;53.258;6.932;2023-08-07T00:40:41;101006.27;;;21.25;65.02
65659;BME280;60181;53.258;6.932;2023-08-07T00:44:51;101007.96;;;21.24;65.12
65659;BME280;60181;53.258;6.932;2023-08-07T00:49:01;101008.87;;;21.24;65.16
65659;BME280;60181;53.258;6.932;2023-08-07T00:53:11;101010.64;;;21.23;65.02
65659;BME280;60181;53.258;6.932;2023-08-07T00:57:21;101012.90;;;21.23;65.00
65659;BME280;60181;53.258;6.932;2023-08-07T01:01:31;101014.81;;;21.22;65.07
65659;BME280;60181;53.258;6.932;2023-08-07T01:05:41;101015.97;;;21.22;65.01
65659;BME280;60181;53.258;6.932;2023-08-07T01:09:51;101018.08;;;21.21;65.03
65659;BME280;60181;53.258;6.932;2023-08-07T01:18:11;101019.26;;;21.20;65.06
65659;BME280;60181;53.258;6.932;2023-08-07T01:22:21;101018.08;;;21.19;65.03
65659;BME280;60181;53.258;6.932;2023-08-07T01:26:31;101016.11;;;21.19;65.02
65659;BME280;60181;53.258;6.932;2023-08-07T01:30:42;101014.61;;;21.19;65.06
65659;BME280;60181;53.258;6.932;2023-08-07T01:34:51;101014.20;;;21.19;65.03
65659;BME280;60181;53.258;6.932;2023-08-07T01:39:01;101014.26;;;21.18;65.08
65659;BME280;60181;53.258;6.932;2023-08-07T01:43:11;101012.69;;;21.18;64.90
65659;BME280;60181;53.258;6.932;2023-08-07T01:47:21;101011.61;;;21.18;64.97
65659;BME280;60181;53.258;6.932;2023-08-07T01:51:31;101009.88;;;21.18;64.99
65659;BME280;60181;53.258;6.932;2023-08-07T01:55:41;101007.97;;;21.17;64.99
65659;BME280;60181;53.258;6.932;2023-08-07T01:59:51;101006.70;;;21.17;65.04
65659;BME280;60181;53.258;6.932;2023-08-07T02:04:01;101005.73;;;21.17;65.03
65659;BME280;60181;53.258;6.932;2023-08-07T02:08:11;101006.16;;;21.16;65.02
65659;BME280;60181;53.258;6.932;2023-08-07T02:12:21;101007.81;;;21.16;64.99
65659;BME280;60181;53.258;6.932;2023-08-07T02:16:31;101010.16;;;21.15;65.04
65659;BME280;60181;53.258;6.932;2023-08-07T02:20:41;101012.39;;;21.15;65.07
65659;BME280;60181;53.258;6.932;2023-08-07T02:24:51;101014.74;;;21.14;65.08
65659;BME280;60181;53.258;6.932;2023-08-07T02:29:00;101016.74;;;21.14;65.09
65659;BME280;60181;53.258;6.932;2023-08-07T02:33:10;101017.92;;;21.13;65.07
65659;BME280;60181;53.258;6.932;2023-08-07T02:37:21;101019.17;;;21.13;65.08
65659;BME280;60181;53.258;6.932;2023-08-07T02:41:30;101019.76;;;21.13;65.08
65659;BME280;60181;53.258;6.932;2023-08-07T02:45:40;101018.77;;;21.12;65.05
65659;BME280;60181;53.258;6.932;2023-08-07T02:49:50;101017.35;;;21.12;65.05
65659;BME280;60181;53.258;6.932;2023-08-07T02:54:00;101017.02;;;21.12;65.02
65659;BME280;60181;53.258;6.932;2023-08-07T02:58:10;101018.27;;;21.11;64.86
65659;BME280;60181;53.258;6.932;2023-08-07T03:02:20;101019.79;;;21.11;65.00
65659;BME280;60181;53.258;6.932;2023-08-07T03:06:30;101021.35;;;21.11;65.00
65659;BME280;60181;53.258;6.932;2023-08-07T03:10:40;101020.37;;;21.10;64.95
65659;BME280;60181;53.258;6.932;2023-08-07T03:14:50;101019.89;;;21.10;64.95
65659;BME280;60181;53.258;6.932;2023-08-07T03:19:00;101018.89;;;21.09;65.00
65659;BME280;60181;53.258;6.932;2023-08-07T03:23:10;101018.14;;;21.09;65.01
65659;BME280;60181;53.258;6.932;2023-08-07T03:27:21;101017.31;;;21.09;64.99
65659;BME280;60181;53.258;6.932;2023-08-07T03:31:30;101016.91;;;21.09;65.04
65659;BME280;60181;53.258;6.932;2023-08-07T03:35:40;101016.14;;;21.08;65.04
65659;BME280;60181;53.258;6.932;2023-08-07T03:39:50;101014.42;;;21.08;65.03
65659;BME280;60181;53.258;6.932;2023-08-07T03:44:00;101013.00;;;21.07;65.07
65659;BME280;60181;53.258;6.932;2023-08-07T03:48:10;101013.26;;;21.06;65.31
65659;BME280;60181;53.258;6.932;2023-08-07T03:52:20;101014.76;;;21.05;65.00
65659;BME280;60181;53.258;6.932;2023-08-07T03:56:30;101016.61;;;21.04;65.25
65659;BME280;60181;53.258;6.932;2023-08-07T04:00:40;101017.27;;;21.04;65.35
65659;BME280;60181;53.258;6.932;2023-08-07T04:04:50;101018.45;;;21.03;64.95
65659;BME280;60181;53.258;6.932;2023-08-07T04:09:00;101018.31;;;21.02;64.49
65659;BME280;60181;53.258;6.932;2023-08-07T04:13:10;101018.00;;;21.01;64.61
65659;BME280;60181;53.258;6.932;2023-08-07T04:17:20;101017.41;;;21.00;64.85
65659;BME280;60181;53.258;6.932;2023-08-07T04:21:30;101018.16;;;20.99;65.09
65659;BME280;60181;53.258;6.932;2023-08-07T04:25:40;101019.34;;;20.99;65.34
65659;BME280;60181;53.258;6.932;2023-08-07T04:29:50;101021.36;;;20.98;65.31
65659;BME280;60181;53.258;6.932;2023-08-07T04:34:00;101022.36;;;20.98;65.10
65659;BME280;60181;53.258;6.932;2023-08-07T04:38:10;101022.69;;;20.98;64.91
65659;BME280;60181;53.258;6.932;2023-08-07T04:42:20;101023.78;;;20.97;64.89
65659;BME280;60181;53.258;6.932;2023-08-07T04:46:30;101024.51;;;20.97;64.92
65659;BME280;60181;53.258;6.932;2023-08-07T04:50:41;101025.44;;;20.97;64.89
65659;BME280;60181;53.258;6.932;2023-08-07T04:54:50;101027.86;;;20.97;64.95
65659;BME280;60181;53.258;6.932;2023-08-07T04:59:00;101030.86;;;20.97;64.99
65659;BME280;60181;53.258;6.932;2023-08-07T05:03:10;101033.26;;;20.97;64.87
65659;BME280;60181;53.258;6.932;2023-08-07T05:07:20;101036.84;;;20.96;64.83
65659;BME280;60181;53.258;6.932;2023-08-07T05:11:30;101041.96;;;20.95;64.63
65659;BME280;60181;53.258;6.932;2023-08-07T05:15:40;101047.27;;;20.95;64.63
65659;BME280;60181;53.258;6.932;2023-08-07T05:19:50;101050.62;;;20.94;64.74
65659;BME280;60181;53.258;6.932;2023-08-07T05:24:00;101052.69;;;20.95;64.74
65659;BME280;60181;53.258;6.932;2023-08-07T05:28:10;101055.27;;;20.95;64.78
65659;BME280;60181;53.258;6.932;2023-08-07T05:32:20;101058.92;;;20.95;65.15
65659;BME280;60181;53.258;6.932;2023-08-07T05:36:30;101062.69;;;20.95;65.05
65659;BME280;60181;53.258;6.932;2023-08-07T05:40:40;101066.58;;;20.95;65.19
65659;BME280;60181;53.258;6.932;2023-08-07T05:44:50;101072.86;;;20.94;64.82
65659;BME280;60181;53.258;6.932;2023-08-07T05:49:00;101077.92;;;20.93;64.30
65659;BME280;60181;53.258;6.932;2023-08-07T05:53:10;101081.69;;;20.91;63.81
65659;BME280;60181;53.258;6.932;2023-08-07T05:57:20;101084.69;;;20.90;63.68
65659;BME280;60181;53.258;6.932;2023-08-07T06:01:30;101088.21;;;20.90;63.50
65659;BME280;60181;53.258;6.932;2023-08-07T06:05:40;101090.36;;;20.89;63.33
65659;BME280;60181;53.258;6.932;2023-08-07T06:09:50;101094.22;;;20.89;63.34
65659;BME280;60181;53.258;6.932;2023-08-07T06:14:00;101100.56;;;20.88;63.15
65659;BME280;60181;53.258;6.932;2023-08-07T06:18:10;101106.06;;;20.87;63.11
65659;BME280;60181;53.258;6.932;2023-08-07T06:22:20;101113.97;;;20.87;63.17
65659;BME280;60181;53.258;6.932;2023-08-07T06:26:30;101120.37;;;20.86;63.22
65659;BME280;60181;53.258;6.932;2023-08-07T06:30:40;101125.80;;;20.86;63.16
65659;BME280;60181;53.258;6.932;2023-08-07T06:34:50;101129.89;;;20.85;63.13
65659;BME280;60181;53.258;6.932;2023-08-07T06:39:00;101135.55;;;20.85;62.96
65659;BME280;60181;53.258;6.932;2023-08-07T06:43:10;101138.81;;;20.85;62.86
65659;BME280;60181;53.258;6.932;2023-08-07T06:47:20;101141.38;;;20.85;62.87
65659;BME280;60181;53.258;6.932;2023-08-07T06:51:30;101144.21;;;20.85;62.79
65659;BME280;60181;53.258;6.932;2023-08-07T06:55:40;101147.61;;;20.86;62.67
65659;BME280;60181;53.258;6.932;2023-08-07T06:59:50;101153.02;;;20.86;62.54
65659;BME280;60181;53.258;6.932;2023-08-07T07:04:00;101157.84;;;20.86;62.43
65659;BME280;60181;53.258;6.932;2023-08-07T07:08:10;101161.60;;;20.86;62.45
65659;BME280;60181;53.258;6.932;2023-08-07T07:12:20;101163.84;;;20.86;62.40
65659;BME280;60181;53.258;6.932;2023-08-07T07:16:30;101164.42;;;20.87;62.30
65659;BME280;60181;53.258;6.932;2023-08-07T07:20:40;101166.17;;;20.87;62.26
65659;BME280;60181;53.258;6.932;2023-08-07T07:24:50;101169.67;;;20.88;62.16
65659;BME280;60181;53.258;6.932;2023-08-07T07:29:00;101172.06;;;20.89;62.16
65659;BME280;60181;53.258;6.932;2023-08-07T07:33:10;101173.95;;;20.89;62.08
65659;BME280;60181;53.258;6.932;2023-08-07T07:37:20;101177.62;;;20.91;61.99
65659;BME280;60181;53.258;6.932;2023-08-07T07:41:30;101182.78;;;20.92;61.99
65659;BME280;60181;53.258;6.932;2023-08-07T07:45:40;101187.77;;;20.94;61.82
65659;BME280;60181;53.258;6.932;2023-08-07T07:50:03;101192.46;;;20.98;61.89
65659;BME280;60181;53.258;6.932;2023-08-07T07:54:00;101194.67;;;21.02;62.00
65659;BME280;60181;53.258;6.932;2023-08-07T07:58:10;101198.07;;;21.05;61.81
65659;BME280;60181;53.258;6.932;2023-08-07T08:02:21;101200.47;;;21.06;61.63
65659;BME280;60181;53.258;6.932;2023-08-07T08:06:30;101203.13;;;21.08;61.43
65659;BME280;60181;53.258;6.932;2023-08-07T08:10:40;101207.78;;;21.08;61.29
65659;BME280;60181;53.258;6.932;2023-08-07T08:14:50;101214.45;;;21.09;61.31
65659;BME280;60181;53.258;6.932;2023-08-07T08:19:00;101219.85;;;21.09;61.22
65659;BME280;60181;53.258;6.932;2023-08-07T08:23:10;101225.44;;;21.09;60.99
65659;BME280;60181;53.258;6.932;2023-08-07T08:27:20;101230.76;;;21.08;60.86
65659;BME280;60181;53.258;6.932;2023-08-07T08:31:30;101237.00;;;21.08;60.83
65659;BME280;60181;53.258;6.932;2023-08-07T08:35:40;101242.32;;;21.09;61.02
65659;BME280;60181;53.258;6.932;2023-08-07T08:39:50;101245.88;;;21.11;60.94
65659;BME280;60181;53.258;6.932;2023-08-07T08:44:00;101249.05;;;21.12;60.71
65659;BME280;60181;53.258;6.932;2023-08-07T08:48:11;101254.71;;;21.13;60.66
65659;BME280;60181;53.258;6.932;2023-08-07T08:52:20;101259.28;;;21.14;60.43
65659;BME280;60181;53.258;6.932;2023-08-07T08:56:30;101266.08;;;21.16;60.45
65659;BME280;60181;53.258;6.932;2023-08-07T09:00:41;101272.50;;;21.17;60.51
65659;BME280;60181;53.258;6.932;2023-08-07T09:04:50;101277.08;;;21.18;60.38
65659;BME280;60181;53.258;6.932;2023-08-07T09:09:00;101279.66;;;21.18;60.29
65659;BME280;60181;53.258;6.932;2023-08-07T09:13:11;101283.06;;;21.19;60.58
65659;BME280;60181;53.258;6.932;2023-08-07T09:17:21;101287.38;;;21.20;60.34
65659;BME280;60181;53.258;6.932;2023-08-07T09:21:30;101293.38;;;21.20;60.19
65659;BME280;60181;53.258;6.932;2023-08-07T09:25:40;101298.97;;;21.20;60.02
65659;BME280;60181;53.258;6.932;2023-08-07T09:29:50;101303.55;;;21.19;60.08
65659;BME280;60181;53.258;6.932;2023-08-07T09:34:03;101308.45;;;21.18;60.03
65659;BME280;60181;53.258;6.932;2023-08-07T09:38:10;101308.67;;;21.17;60.00
65659;BME280;60181;53.258;6.932;2023-08-07T09:42:20;101309.06;;;21.16;59.89
65659;BME280;60181;53.258;6.932;2023-08-07T09:46:30;101311.08;;;21.16;59.76
65659;BME280;60181;53.258;6.932;2023-08-07T09:50:40;101313.50;;;21.16;59.90
65659;BME280;60181;53.258;6.932;2023-08-07T09:54:50;101314.39;;;21.17;59.80
65659;BME280;60181;53.258;6.932;2023-08-07T09:59:00;101313.99;;;21.17;59.89
65659;BME280;60181;53.258;6.932;2023-08-07T10:03:10;101315.55;;;21.18;59.85
65659;BME280;60181;53.258;6.932;2023-08-07T10:07:20;101317.47;;;21.19;59.72
65659;BME280;60181;53.258;6.932;2023-08-07T10:11:30;101322.20;;;21.19;59.67
65659;BME280;60181;53.258;6.932;2023-08-07T10:15:40;101324.89;;;21.19;59.22
65659;BME280;60181;53.258;6.932;2023-08-07T10:19:53;101333.54;;;21.18;59.11
65659;BME280;60181;53.258;6.932;2023-08-07T10:24:00;101340.55;;;21.17;58.81
65659;BME280;60181;53.258;6.932;2023-08-07T10:28:10;101344.81;;;21.16;58.70
65659;BME280;60181;53.258;6.932;2023-08-07T10:32:20;101348.49;;;21.15;58.64
65659;BME280;60181;53.258;6.932;2023-08-07T10:36:33;101351.56;;;21.14;58.64
65659;BME280;60181;53.258;6.932;2023-08-07T10:40:58;101355.41;;;21.13;58.64
65659;BME280;60181;53.258;6.932;2023-08-07T10:44:50;101357.64;;;21.13;58.68
65659;BME280;60181;53.258;6.932;2023-08-07T10:49:00;101359.82;;;21.12;58.70
65659;BME280;60181;53.258;6.932;2023-08-07T10:53:10;101362.32;;;21.11;58.71
65659;BME280;60181;53.258;6.932;2023-08-07T10:57:20;101366.27;;;21.10;58.72
65659;BME280;60181;53.258;6.932;2023-08-07T11:05:40;101364.53;;;21.09;58.71
65659;BME280;60181;53.258;6.932;2023-08-07T11:09:50;101364.03;;;21.09;58.72
65659;BME280;60181;53.258;6.932;2023-08-07T11:14:00;101363.26;;;21.09;58.75
65659;BME280;60181;53.258;6.932;2023-08-07T11:18:10;101361.92;;;21.09;58.85
65659;BME280;60181;53.258;6.932;2023-08-07T11:22:20;101363.76;;;21.10;58.93
65659;BME280;60181;53.258;6.932;2023-08-07T11:26:30;101366.75;;;21.10;58.86
65659;BME280;60181;53.258;6.932;2023-08-07T11:30:40;101368.17;;;21.10;58.63
65659;BME280;60181;53.258;6.932;2023-08-07T11:34:50;101368.09;;;21.10;58.48
65659;BME280;60181;53.258;6.932;2023-08-07T11:39:00;101369.42;;;21.09;58.39
65659;BME280;60181;53.258;6.932;2023-08-07T11:43:10;101372.50;;;21.09;58.15
65659;BME280;60181;53.258;6.932;2023-08-07T11:47:20;101374.52;;;21.09;58.01
65659;BME280;60181;53.258;6.932;2023-08-07T11:51:30;101376.00;;;21.08;57.97
65659;BME280;60181;53.258;6.932;2023-08-07T11:59:50;101378.25;;;21.07;57.85
65659;BME280;60181;53.258;6.932;2023-08-07T12:04:09;101379.01;;;21.07;57.87
65659;BME280;60181;53.258;6.932;2023-08-07T12:08:10;101379.02;;;21.08;57.98
65659;BME280;60181;53.258;6.932;2023-08-07T12:12:20;101381.00;;;21.08;58.17
65659;BME280;60181;53.258;6.932;2023-08-07T12:16:34;101381.19;;;21.09;58.46
65659;BME280;60181;53.258;6.932;2023-08-07T12:20:40;101381.33;;;21.09;58.41
65659;BME280;60181;53.258;6.932;2023-08-07T12:24:50;101383.40;;;21.09;58.40
65659;BME280;60181;53.258;6.932;2023-08-07T12:29:00;101386.66;;;21.09;58.31
65659;BME280;60181;53.258;6.932;2023-08-07T12:33:10;101390.09;;;21.09;58.36
65659;BME280;60181;53.258;6.932;2023-08-07T12:37:20;101391.68;;;21.09;58.32
65659;BME280;60181;53.258;6.932;2023-08-07T12:41:30;101393.75;;;21.09;58.38
65659;BME280;60181;53.258;6.932;2023-08-07T12:45:40;101393.02;;;21.09;58.44
65659;BME280;60181;53.258;6.932;2023-08-07T12:49:50;101393.73;;;21.08;58.37
65659;BME280;60181;53.258;6.932;2023-08-07T12:54:00;101395.23;;;21.08;58.48
65659;BME280;60181;53.258;6.932;2023-08-07T12:58:10;101396.41;;;21.08;58.47
65659;BME280;60181;53.258;6.932;2023-08-07T13:02:20;101396.25;;;21.09;58.73
65659;BME280;60181;53.258;6.932;2023-08-07T13:06:30;101396.73;;;21.09;58.99
65659;BME280;60181;53.258;6.932;2023-08-07T13:10:40;101398.91;;;21.10;59.04
65659;BME280;60181;53.258;6.932;2023-08-07T13:14:50;101403.23;;;21.10;58.95
65659;BME280;60181;53.258;6.932;2023-08-07T13:19:00;101408.46;;;21.11;58.85
65659;BME280;60181;53.258;6.932;2023-08-07T13:23:10;101411.22;;;21.10;58.81
65659;BME280;60181;53.258;6.932;2023-08-07T13:27:20;101413.79;;;21.11;58.91
65659;BME280;60181;53.258;6.932;2023-08-07T13:31:30;101415.73;;;21.11;58.93
65659;BME280;60181;53.258;6.932;2023-08-07T13:35:40;101418.56;;;21.11;58.85
65659;BME280;60181;53.258;6.932;2023-08-07T13:39:50;101425.62;;;21.11;58.85
65659;BME280;60181;53.258;6.932;2023-08-07T13:44:00;101432.06;;;21.10;58.64
65659;BME280;60181;53.258;6.932;2023-08-07T13:48:10;101436.99;;;21.10;58.66
65659;BME280;60181;53.258;6.932;2023-08-07T13:52:20;101438.64;;;21.09;58.79
65659;BME280;60181;53.258;6.932;2023-08-07T13:56:30;101440.31;;;21.09;58.94
65659;BME280;60181;53.258;6.932;2023-08-07T14:00:40;101444.04;;;21.08;58.89
65659;BME280;60181;53.258;6.932;2023-08-07T14:04:50;101448.22;;;21.08;58.99
65659;BME280;60181;53.258;6.932;2023-08-07T14:09:00;101453.89;;;21.08;58.92
65659;BME280;60181;53.258;6.932;2023-08-07T14:13:10;101459.64;;;21.08;59.04
65659;BME280;60181;53.258;6.932;2023-08-07T14:17:20;101465.31;;;21.08;58.97
65659;BME280;60181;53.258;6.932;2023-08-07T14:21:30;101467.86;;;21.07;58.96
65659;BME280;60181;53.258;6.932;2023-08-07T14:25:40;101471.62;;;21.07;59.03
65659;BME280;60181;53.258;6.932;2023-08-07T14:29:50;101473.55;;;21.07;59.05
65659;BME280;60181;53.258;6.932;2023-08-07T14:34:00;101476.79;;;21.06;59.07
65659;BME280;60181;53.258;6.932;2023-08-07T14:38:10;101478.70;;;21.07;59.05
65659;BME280;60181;53.258;6.932;2023-08-07T14:42:20;101479.71;;;21.07;59.12
65659;BME280;60181;53.258;6.932;2023-08-07T14:46:30;101482.86;;;21.07;59.18
65659;BME280;60181;53.258;6.932;2023-08-07T14:50:40;101483.86;;;21.07;59.06
65659;BME280;60181;53.258;6.932;2023-08-07T14:54:50;101486.61;;;21.07;58.96
65659;BME280;60181;53.258;6.932;2023-08-07T14:59:00;101488.87;;;21.07;59.01
65659;BME280;60181;53.258;6.932;2023-08-07T15:03:10;101491.28;;;21.07;59.14
65659;BME280;60181;53.258;6.932;2023-08-07T15:07:20;101493.87;;;21.07;59.04
65659;BME280;60181;53.258;6.932;2023-08-07T15:11:30;101495.45;;;21.06;59.06
65659;BME280;60181;53.258;6.932;2023-08-07T15:15:39;101498.88;;;21.06;58.73
65659;BME280;60181;53.258;6.932;2023-08-07T15:19:49;101501.93;;;21.06;58.78
65659;BME280;60181;53.258;6.932;2023-08-07T15:23:59;101504.63;;;21.05;58.78
65659;BME280;60181;53.258;6.932;2023-08-07T15:28:09;101506.37;;;21.05;58.92
65659;BME280;60181;53.258;6.932;2023-08-07T15:32:19;101508.87;;;21.05;58.88
65659;BME280;60181;53.258;6.932;2023-08-07T15:36:29;101511.77;;;21.05;58.95
65659;BME280;60181;53.258;6.932;2023-08-07T15:40:40;101515.44;;;21.05;58.88
65659;BME280;60181;53.258;6.932;2023-08-07T15:44:49;101517.77;;;21.05;58.64
65659;BME280;60181;53.258;6.932;2023-08-07T15:48:59;101520.45;;;21.04;58.68
65659;BME280;60181;53.258;6.932;2023-08-07T15:53:09;101522.38;;;21.04;58.80
65659;BME280;60181;53.258;6.932;2023-08-07T15:57:19;101523.86;;;21.04;58.68
65659;BME280;60181;53.258;6.932;2023-08-07T16:01:29;101526.45;;;21.03;58.51
65659;BME280;60181;53.258;6.932;2023-08-07T16:05:39;101529.71;;;21.03;58.46
65659;BME280;60181;53.258;6.932;2023-08-07T16:09:49;101532.96;;;21.03;58.29
65659;BME280;60181;53.258;6.932;2023-08-07T16:13:59;101533.61;;;21.02;58.42
65659;BME280;60181;53.258;6.932;2023-08-07T16:18:09;101535.46;;;21.02;58.29
65659;BME280;60181;53.258;6.932;2023-08-07T16:22:19;101538.12;;;21.01;58.23
65659;BME280;60181;53.258;6.932;2023-08-07T16:26:29;101541.20;;;21.00;58.13
65659;BME280;60181;53.258;6.932;2023-08-07T16:30:39;101543.63;;;20.99;58.01
65659;BME280;60181;53.258;6.932;2023-08-07T16:34:49;101543.45;;;20.98;57.97
65659;BME280;60181;53.258;6.932;2023-08-07T16:38:59;101542.38;;;20.97;57.93
65659;BME280;60181;53.258;6.932;2023-08-07T16:43:09;101540.62;;;20.97;58.02
65659;BME280;60181;53.258;6.932;2023-08-07T16:47:19;101539.39;;;20.96;58.04
65659;BME280;60181;53.258;6.932;2023-08-07T16:51:29;101537.80;;;20.97;58.34
65659;BME280;60181;53.258;6.932;2023-08-07T16:55:39;101537.05;;;20.96;58.32
65659;BME280;60181;53.258;6.932;2023-08-07T16:59:49;101535.13;;;20.96;58.21
65659;BME280;60181;53.258;6.932;2023-08-07T17:03:59;101535.15;;;20.95;58.11
65659;BME280;60181;53.258;6.932;2023-08-07T17:08:09;101533.47;;;20.95;58.05
65659;BME280;60181;53.258;6.932;2023-08-07T17:12:19;101532.32;;;20.94;58.11
65659;BME280;60181;53.258;6.932;2023-08-07T17:16:29;101531.05;;;20.94;58.09
65659;BME280;60181;53.258;6.932;2023-08-07T17:20:39;101529.57;;;20.93;58.11
65659;BME280;60181;53.258;6.932;2023-08-07T17:24:49;101528.98;;;20.93;58.21
65659;BME280;60181;53.258;6.932;2023-08-07T17:28:59;101530.25;;;20.92;58.22
65659;BME280;60181;53.258;6.932;2023-08-07T17:33:09;101531.75;;;20.91;58.22
65659;BME280;60181;53.258;6.932;2023-08-07T17:37:19;101531.75;;;20.90;58.19
65659;BME280;60181;53.258;6.932;2023-08-07T17:41:29;101531.41;;;20.89;58.11
65659;BME280;60181;53.258;6.932;2023-08-07T17:45:39;101528.59;;;20.88;58.03
65659;BME280;60181;53.258;6.932;2023-08-07T17:49:49;101525.26;;;20.87;58.02
65659;BME280;60181;53.258;6.932;2023-08-07T17:53:59;101521.77;;;20.86;58.04
65659;BME280;60181;53.258;6.932;2023-08-07T17:58:09;101518.17;;;20.85;58.07
65659;BME280;60181;53.258;6.932;2023-08-07T18:02:19;101515.01;;;20.85;58.11
65659;BME280;60181;53.258;6.932;2023-08-07T18:06:29;101512.27;;;20.85;58.17
65659;BME280;60181;53.258;6.932;2023-08-07T18:10:39;101509.34;;;20.85;58.22
65659;BME280;60181;53.258;6.932;2023-08-07T18:14:49;101505.85;;;20.85;58.19
65659;BME280;60181;53.258;6.932;2023-08-07T18:18:59;101503.69;;;20.85;58.21
65659;BME280;60181;53.258;6.932;2023-08-07T18:23:09;101501.19;;;20.85;58.20
65659;BME280;60181;53.258;6.932;2023-08-07T18:27:19;101498.95;;;20.85;58.17
65659;BME280;60181;53.258;6.932;2023-08-07T18:31:29;101497.64;;;20.84;58.15
65659;BME280;60181;53.258;6.932;2023-08-07T18:35:39;101495.95;;;20.83;58.17
65659;BME280;60181;53.258;6.932;2023-08-07T18:39:49;101493.80;;;20.83;58.19
65659;BME280;60181;53.258;6.932;2023-08-07T18:44:00;101491.55;;;20.82;58.22
65659;BME280;60181;53.258;6.932;2023-08-07T18:48:09;101489.62;;;20.81;58.22
65659;BME280;60181;53.258;6.932;2023-08-07T18:52:19;101486.89;;;20.80;58.26
65659;BME280;60181;53.258;6.932;2023-08-07T18:56:29;101484.89;;;20.79;58.36
65659;BME280;60181;53.258;6.932;2023-08-07T19:00:39;101483.56;;;20.78;58.36
65659;BME280;60181;53.258;6.932;2023-08-07T19:04:49;101481.73;;;20.77;58.41
65659;BME280;60181;53.258;6.932;2023-08-07T19:08:59;101480.66;;;20.76;58.52
65659;BME280;60181;53.258;6.932;2023-08-07T19:13:09;101479.24;;;20.75;58.53
65659;BME280;60181;53.258;6.932;2023-08-07T19:17:19;101477.58;;;20.74;58.55
65659;BME280;60181;53.258;6.932;2023-08-07T19:21:29;101475.06;;;20.73;58.52
65659;BME280;60181;53.258;6.932;2023-08-07T19:25:39;101473.07;;;20.72;58.64
65659;BME280;60181;53.258;6.932;2023-08-07T19:29:49;101471.75;;;20.72;58.53
65659;BME280;60181;53.258;6.932;2023-08-07T19:33:59;101470.51;;;20.71;58.55
65659;BME280;60181;53.258;6.932;2023-08-07T19:38:09;101469.25;;;20.70;58.51
65659;BME280;60181;53.258;6.932;2023-08-07T19:42:19;101467.92;;;20.69;58.58
65659;BME280;60181;53.258;6.932;2023-08-07T19:46:29;101466.02;;;20.67;58.59
65659;BME280;60181;53.258;6.932;2023-08-07T19:50:39;101464.76;;;20.67;58.60
65659;BME280;60181;53.258;6.932;2023-08-07T19:54:49;101462.02;;;20.65;58.57
65659;BME280;60181;53.258;6.932;2023-08-07T19:58:59;101459.03;;;20.64;58.66
65659;BME280;60181;53.258;6.932;2023-08-07T20:03:09;101456.11;;;20.64;58.72
65659;BME280;60181;53.258;6.932;2023-08-07T20:07:19;101453.39;;;20.63;58.82
65659;BME280;60181;53.258;6.932;2023-08-07T20:11:34;101451.70;;;20.62;58.67
65659;BME280;60181;53.258;6.932;2023-08-07T20:15:39;101450.29;;;20.61;58.74
65659;BME280;60181;53.258;6.932;2023-08-07T20:19:49;101447.55;;;20.60;58.59
65659;BME280;60181;53.258;6.932;2023-08-07T20:23:59;101444.48;;;20.59;58.68
65659;BME280;60181;53.258;6.932;2023-08-07T20:28:09;101440.66;;;20.58;58.70
65659;BME280;60181;53.258;6.932;2023-08-07T20:32:19;101438.23;;;20.57;58.61
65659;BME280;60181;53.258;6.932;2023-08-07T20:36:29;101434.83;;;20.56;58.63
65659;BME280;60181;53.258;6.932;2023-08-07T20:40:39;101433.61;;;20.55;58.63
65659;BME280;60181;53.258;6.932;2023-08-07T20:44:49;101431.78;;;20.54;58.53
65659;BME280;60181;53.258;6.932;2023-08-07T20:48:59;101431.85;;;20.53;58.52
65659;BME280;60181;53.258;6.932;2023-08-07T20:53:09;101431.36;;;20.52;58.63
65659;BME280;60181;53.258;6.932;2023-08-07T20:57:19;101428.27;;;20.51;58.53
65659;BME280;60181;53.258;6.932;2023-08-07T21:01:29;101424.05;;;20.51;58.62
65659;BME280;60181;53.258;6.932;2023-08-07T21:05:39;101420.28;;;20.50;58.74
65659;BME280;60181;53.258;6.932;2023-08-07T21:09:49;101417.47;;;20.50;58.70
65659;BME280;60181;53.258;6.932;2023-08-07T21:13:59;101414.48;;;20.49;58.62
65659;BME280;60181;53.258;6.932;2023-08-07T21:18:09;101410.07;;;20.49;58.53
65659;BME280;60181;53.258;6.932;2023-08-07T21:22:19;101406.48;;;20.48;58.53
65659;BME280;60181;53.258;6.932;2023-08-07T21:26:29;101402.07;;;20.47;58.53
65659;BME280;60181;53.258;6.932;2023-08-07T21:30:39;101397.08;;;20.46;58.55
65659;BME280;60181;53.258;6.932;2023-08-07T21:34:49;101392.86;;;20.45;58.49
65659;BME280;60181;53.258;6.932;2023-08-07T21:38:59;101389.51;;;20.45;58.43
65659;BME280;60181;53.258;6.932;2023-08-07T21:43:09;101387.11;;;20.44;58.50
65659;BME280;60181;53.258;6.932;2023-08-07T21:47:19;101384.19;;;20.44;58.46
65659;BME280;60181;53.258;6.932;2023-08-07T21:51:29;101381.37;;;20.43;58.52
65659;BME280;60181;53.258;6.932;2023-08-07T21:55:39;101377.91;;;20.42;58.65
65659;BME280;60181;53.258;6.932;2023-08-07T21:59:49;101374.49;;;20.41;58.50